Time;durP1;ratioP1;P1;durP2;ratioP2;P2;SDS_P1;SDS_P2;PMS_P1;PMS_P2;Temp;Humidity;BMP_temperature;BMP_pressure;BME280_temperature;BME280_humidity;BME280_pressure;Samples;Min_cycle;Max_cycle;Signal;HPM_P1;HPM_P2
2023/06/13 00:01:24;;;;;;;;;;;;;;;;;;5061299;28;5077;-59
2023/06/13 00:03:50;;;;;;;;;;;;;;;;;;5062738;28;4669;-59
2023/06/13 00:06:15;;;;;;;;;;;;;;;;;;5064644;28;5105;-59
2023/06/13 00:08:42;;;;;;;;;;;;;;;;;;5060451;28;5195;-62
2023/06/13 00:11:07;;;;;;;;;;;;;;;;;;5060623;28;2245;-58
2023/06/13 00:13:32;;;;;;;;;;;;;;;;;;5053388;28;5006;-61
2023/06/13 00:15:58;;;;;;;;;;;;;;;;;;5060672;28;4503;-57
2023/06/13 00:18:24;;;;;;;;;;;;;;;;;;5060024;28;4665;-60
2023/06/13 00:20:50;;;;;;;;;;;;;;;;;;5064524;28;5203;-58
2023/06/13 00:23:16;;;;;;;;;;;;;;;;;;5075841;28;3270;-58
2023/06/13 00:25:41;;;;;;;;;;;;;;;;;;5089642;27;5010;-57
2023/06/13 00:28:06;;;;;;;;;;;;;;;;;;5068870;28;4883;-57
2023/06/13 00:30:31;;;;;;;;;;;;;;;;;;5067606;28;4794;-58
2023/06/13 00:32:57;;;;;;;;;;;;;;;;;;5066868;28;5113;-59
2023/06/13 00:35:22;;;;;;;;;;;;;;;;;;5069383;28;3314;-58
2023/06/13 00:37:50;;;;;;;;;;;;;;;;;;5068528;28;4637;-58
2023/06/13 00:40:17;;;;;;;;;;;;;;;;;;5066897;28;5249;-58
2023/06/13 00:42:42;;;;;;;;;;;;;;;;;;5063898;28;5145;-58
2023/06/13 00:45:23;;;;;;;;;;;;;;;;;;5064301;28;4470;-59
2023/06/13 00:47:52;;;;;;;;;;;;;;;;;;5065478;28;4714;-57
2023/06/13 00:50:36;;;;;;;;;;;;;;;;;;5069608;28;1412;-59
2023/06/13 00:53:08;;;;;;;;;;;;;;;;;;5066794;28;4767;-59
2023/06/13 00:55:33;;;;;;;;;;;;;;;;;;5065726;28;5190;-57
2023/06/13 00:58:06;;;;;;;;;;;;;;;;;;5064884;28;4769;-58
2023/06/13 01:00:31;;;;;;;;;;;;;;;;;;5063566;28;4789;-58
2023/06/13 01:02:59;;;;;;;;;;;;;;;;;;5065566;28;5038;-58
2023/06/13 01:05:27;;;;;;;;;;;;;;;;;;5068937;28;3140;-60
2023/06/13 01:07:57;;;;;;;;;;;;;;;;;;5067509;28;5155;-58
2023/06/13 01:10:22;;;;;;;;;;;;;;;;;;5066116;28;4472;-58
2023/06/13 01:13:00;;;;;;;;;;;;;;;;;;5059133;28;4635;-58
2023/06/13 01:15:25;;;;;;;;;;;;;;;;;;5063349;28;5169;-59
2023/06/13 01:17:57;;;;;;;;;;;;;;;;;;5060746;28;4848;-58
2023/06/13 01:20:22;;;;;;;;;;;;;;;;;;5063365;28;3179;-58
2023/06/13 01:23:10;;;;;;;;;;;;;;;;;;5067257;28;4982;-58
2023/06/13 01:25:48;;;;;;;;;;;;;;;;;;5066863;28;5182;-58
2023/06/13 01:28:14;;;;;;;;;;;;;;;;;;5060237;28;4774;-58
2023/06/13 01:30:40;;;;;;;;;;;;;;;;;;5066755;28;4489;-58
2023/06/13 01:33:05;;;;;;;;;;;;;;;;;;5062679;28;4488;-57
2023/06/13 01:35:31;;;;;;;;;;;;;;;;;;5066466;28;3230;-57
2023/06/13 01:37:56;;;;;;;;;;;;;;;;;;5064320;28;4567;-58
2023/06/13 01:40:22;;;;;;;;;;;;;;;;;;5045763;28;4835;-57
2023/06/13 01:42:47;;;;;;;;;;;;;;;;;;5062403;28;4497;-58
2023/06/13 01:45:12;;;;;;;;;;;;;;;;;;5064375;28;4597;-58
2023/06/13 01:47:50;;;;;;;;;;;;;;;;;;5067690;28;3568;-58
2023/06/13 01:50:20;;;;;;;;;;;;;;;;;;5066893;28;5148;-58
2023/06/13 01:52:51;;;;;;;;;;;;;;;;;;5049295;28;5141;-58
2023/06/13 01:55:26;;;;;;;;;;;;;;;;;;5067124;28;4563;-57
2023/06/13 01:57:52;;;;;;;;;;;;;;;;;;5063108;28;4525;-57
2023/06/13 02:00:17;;;;;;;;;;;;;;;;;;5063371;28;4593;-58
2023/06/13 02:02:43;;;;;;;;;;;;;;;;;;5061784;28;4480;-60
2023/06/13 02:05:08;;;;;;;;;;;;;;;;;;5062416;28;3433;-58
2023/06/13 02:07:36;;;;;;;;;;;;;;;;;;5056651;28;5043;-58
2023/06/13 02:10:04;;;;;;;;;;;;;;;;;;5061882;28;5136;-59
2023/06/13 02:12:30;;;;;;;;;;;;;;;;;;5056696;28;4554;-57
2023/06/13 02:14:56;;;;;;;;;;;;;;;;;;5056038;28;5136;-60
2023/06/13 02:17:22;;;;;;;;;;;;;;;;;;5065989;28;3415;-57
2023/06/13 02:19:47;;;;;;;;;;;;;;;;;;5056540;28;4727;-59
2023/06/13 02:22:12;;;;;;;;;;;;;;;;;;5054717;28;5042;-60
2023/06/13 02:24:37;;;;;;;;;;;;;;;;;;5060474;28;5184;-60
2023/06/13 02:27:03;;;;;;;;;;;;;;;;;;5059673;28;5040;-59
2023/06/13 02:29:28;;;;;;;;;;;;;;;;;;5066717;28;3357;-58
2023/06/13 02:31:53;;;;;;;;;;;;;;;;;;5061445;28;4621;-57
2023/06/13 02:34:19;;;;;;;;;;;;;;;;;;5059612;28;4577;-59
2023/06/13 02:36:44;;;;;;;;;;;;;;;;;;5057496;28;5414;-58
2023/06/13 02:39:11;;;;;;;;;;;;;;;;;;5064370;28;4781;-59
2023/06/13 02:41:36;;;;;;;;;;;;;;;;;;5060745;28;3438;-58
2023/06/13 02:44:02;;;;;;;;;;;;;;;;;;5053137;28;4559;-58
2023/06/13 02:46:27;;;;;;;;;;;;;;;;;;5058050;28;4998;-59
2023/06/13 02:48:53;;;;;;;;;;;;;;;;;;5065029;28;5060;-58
2023/06/13 02:51:18;;;;;;;;;;;;;;;;;;5058051;28;4504;-59
2023/06/13 02:53:43;;;;;;;;;;;;;;;;;;5060005;28;4689;-59
2023/06/13 02:56:08;;;;;;;;;;;;;;;;;;5059288;28;3264;-58
2023/06/13 02:58:33;;;;;;;;;;;;;;;;;;5056237;28;5185;-60
2023/06/13 03:00:59;;;;;;;;;;;;;;;;;;5060896;28;4631;-59
2023/06/13 03:03:25;;;;;;;;;;;;;;;;;;5060838;28;4545;-60
2023/06/13 03:05:56;;;;;;;;;;;;;;;;;;5061429;28;4489;-61
2023/06/13 03:08:21;;;;;;;;;;;;;;;;;;5060056;28;3463;-62
2023/06/13 03:10:48;;;;;;;;;;;;;;;;;;5061080;28;4627;-59
2023/06/13 03:13:13;;;;;;;;;;;;;;;;;;5059485;28;4514;-60
2023/06/13 03:15:38;;;;;;;;;;;;;;;;;;5061273;28;4590;-60
2023/06/13 03:18:04;;;;;;;;;;;;;;;;;;5063772;28;4649;-58
2023/06/13 03:20:30;;;;;;;;;;;;;;;;;;5065383;28;3382;-60
2023/06/13 03:22:55;;;;;;;;;;;;;;;;;;5067232;28;4458;-59
2023/06/13 03:25:21;;;;;;;;;;;;;;;;;;5066633;28;4488;-59
2023/06/13 03:27:46;;;;;;;;;;;;;;;;;;5067447;28;5202;-59
2023/06/13 03:30:11;;;;;;;;;;;;;;;;;;5065968;28;4480;-61
2023/06/13 03:32:37;;;;;;;;;;;;;;;;;;5066339;28;3378;-60
2023/06/13 03:35:02;;;;;;;;;;;;;;;;;;5066818;28;4968;-59
2023/06/13 03:37:28;;;;;;;;;;;;;;;;;;5067064;28;5098;-59
2023/06/13 03:39:53;;;;;;;;;;;;;;;;;;5066211;28;5018;-59
2023/06/13 03:42:18;;;;;;;;;;;;;;;;;;5066441;28;4686;-61
2023/06/13 03:44:46;;;;;;;;;;;;;;;;;;5059069;28;5055;-59
2023/06/13 03:47:12;;;;;;;;;;;;;;;;;;5067043;28;3352;-58
2023/06/13 03:49:37;;;;;;;;;;;;;;;;;;5066869;28;4435;-60
2023/06/13 03:52:03;;;;;;;;;;;;;;;;;;5066381;28;4469;-62
2023/06/13 03:54:28;;;;;;;;;;;;;;;;;;5066661;28;5028;-60
2023/06/13 03:56:53;;;;;;;;;;;;;;;;;;5062082;28;4566;-60
2023/06/13 03:59:18;;;;;;;;;;;;;;;;;;5070934;28;1493;-61
2023/06/13 04:01:44;;;;;;;;;;;;;;;;;;5068421;28;4447;-60
2023/06/13 04:04:09;;;;;;;;;;;;;;;;;;5070518;28;4605;-61
2023/06/13 04:06:35;;;;;;;;;;;;;;;;;;5070165;28;4512;-60
2023/06/13 04:09:04;;;;;;;;;;;;;;;;;;5070449;28;5392;-59
2023/06/13 04:11:29;;;;;;;;;;;;;;;;;;5065992;28;3263;-58
2023/06/13 04:13:54;;;;;;;;;;;;;;;;;;5068969;28;4741;-59
2023/06/13 04:16:19;;;;;;;;;;;;;;;;;;5066570;28;4648;-59
2023/06/13 04:18:45;;;;;;;;;;;;;;;;;;5070200;28;4831;-60
2023/06/13 04:21:10;;;;;;;;;;;;;;;;;;5069770;28;4746;-59
2023/06/13 04:23:36;;;;;;;;;;;;;;;;;;5070728;28;1371;-58
2023/06/13 04:26:03;;;;;;;;;;;;;;;;;;5063574;28;4554;-58
2023/06/13 04:28:29;;;;;;;;;;;;;;;;;;5069948;28;4916;-59
2023/06/13 04:30:56;;;;;;;;;;;;;;;;;;5068331;28;4866;-60
2023/06/13 04:33:22;;;;;;;;;;;;;;;;;;5067987;28;4958;-60
2023/06/13 04:35:49;;;;;;;;;;;;;;;;;;5067221;28;4453;-60
2023/06/13 04:38:16;;;;;;;;;;;;;;;;;;5069988;28;3769;-59
2023/06/13 04:40:41;;;;;;;;;;;;;;;;;;5067489;28;4961;-60
2023/06/13 04:43:09;;;;;;;;;;;;;;;;;;5063768;28;4733;-58
2023/06/13 04:45:35;;;;;;;;;;;;;;;;;;5065271;28;4534;-62
2023/06/13 04:48:03;;;;;;;;;;;;;;;;;;5064039;28;4663;-62
2023/06/13 04:50:33;;;;;;;;;;;;;;;;;;5067525;28;3306;-62
2023/06/13 04:52:58;;;;;;;;;;;;;;;;;;5067305;28;4563;-62
2023/06/13 04:55:25;;;;;;;;;;;;;;;;;;5067905;28;5189;-62
2023/06/13 04:57:50;;;;;;;;;;;;;;;;;;5066929;28;4632;-62
2023/06/13 05:00:15;;;;;;;;;;;;;;;;;;5066737;28;4680;-62
2023/06/13 05:02:41;;;;;;;;;;;;;;;;;;5066930;28;5545;-62
2023/06/13 05:05:07;;;;;;;;;;;;;;;;;;5068026;28;1084;-62
2023/06/13 05:07:32;;;;;;;;;;;;;;;;;;5067967;28;4430;-62
2023/06/13 05:09:57;;;;;;;;;;;;;;;;;;5068073;28;4452;-63
2023/06/13 05:12:22;;;;;;;;;;;;;;;;;;5067308;28;5057;-64
2023/06/13 05:14:48;;;;;;;;;;;;;;;;;;5064854;28;5712;-63
2023/06/13 05:17:14;;;;;;;;;;;;;;;;;;5069389;28;1964;-62
2023/06/13 05:19:40;;;;;;;;;;;;;;;;;;5068909;28;5310;-62
2023/06/13 05:22:05;;;;;;;;;;;;;;;;;;5068713;28;4661;-63
2023/06/13 05:24:31;;;;;;;;;;;;;;;;;;5069211;28;4859;-62
2023/06/13 05:26:56;;;;;;;;;;;;;;;;;;5068491;28;4964;-63
2023/06/13 05:29:21;;;;;;;;;;;;;;;;;;5069272;28;1108;-63
2023/06/13 05:31:47;;;;;;;;;;;;;;;;;;5068408;28;4899;-63
2023/06/13 05:34:12;;;;;;;;;;;;;;;;;;5067075;28;4593;-62
2023/06/13 05:36:37;;;;;;;;;;;;;;;;;;5068326;28;4679;-62
2023/06/13 05:39:02;;;;;;;;;;;;;;;;;;5068374;28;5111;-63
2023/06/13 05:41:28;;;;;;;;;;;;;;;;;;5067458;28;2330;-63
2023/06/13 05:43:53;;;;;;;;;;;;;;;;;;5064760;28;4422;-65
2023/06/13 05:46:18;;;;;;;;;;;;;;;;;;5066848;28;5015;-63
2023/06/13 05:48:44;;;;;;;;;;;;;;;;;;5068696;28;4463;-62
2023/06/13 05:51:09;;;;;;;;;;;;;;;;;;5067172;28;5056;-62
2023/06/13 05:53:34;;;;;;;;;;;;;;;;;;5069499;28;1208;-62
2023/06/13 05:56:00;;;;;;;;;;;;;;;;;;5068375;28;4422;-63
2023/06/13 05:58:25;;;;;;;;;;;;;;;;;;5068385;28;4758;-63
2023/06/13 06:00:52;;;;;;;;;;;;;;;;;;5066588;28;5252;-63
2023/06/13 06:03:17;;;;;;;;;;;;;;;;;;5062680;28;5135;-65
2023/06/13 06:05:42;;;;;;;;;;;;;;;;;;5065414;28;4522;-65
2023/06/13 06:08:08;;;;;;;;;;;;;;;;;;5063696;28;3259;-61
2023/06/13 06:10:33;;;;;;;;;;;;;;;;;;5063946;28;5054;-62
2023/06/13 06:12:58;;;;;;;;;;;;;;;;;;5076647;28;4635;-61
2023/06/13 06:15:23;;;;;;;;;;;;;;;;;;5061738;28;5064;-60
2023/06/13 06:17:50;;;;;;;;;;;;;;;;;;5066472;28;4828;-61
2023/06/13 06:20:16;;;;;;;;;;;;;;;;;;5067748;28;1340;-61
2023/06/13 06:22:41;;;;;;;;;;;;;;;;;;5090413;28;4967;-61
2023/06/13 06:25:08;;;;;;;;;;;;;;;;;;5065263;28;4461;-61
2023/06/13 06:27:33;;;;;;;;;;;;;;;;;;5067523;28;4473;-61
2023/06/13 06:29:59;;;;;;;;;;;;;;;;;;5066315;28;5047;-61
2023/06/13 06:32:24;;;;;;;;;;;;;;;;;;5067437;28;1134;-61
2023/06/13 06:34:49;;;;;;;;;;;;;;;;;;5068016;28;4478;-61
2023/06/13 06:37:14;;;;;;;;;;;;;;;;;;5066748;28;5461;-61
2023/06/13 06:39:40;;;;;;;;;;;;;;;;;;5067422;28;5011;-62
2023/06/13 06:42:05;;;;;;;;;;;;;;;;;;5067255;28;4442;-61
2023/06/13 06:44:30;;;;;;;;;;;;;;;;;;5063900;28;1533;-61
2023/06/13 06:46:56;;;;;;;;;;;;;;;;;;5067417;28;4485;-62
2023/06/13 06:49:21;;;;;;;;;;;;;;;;;;5067637;28;5831;-62
2023/06/13 06:51:46;;;;;;;;;;;;;;;;;;5066861;28;4625;-61
2023/06/13 06:54:11;;;;;;;;;;;;;;;;;;5065552;28;4493;-60
2023/06/13 06:56:37;;;;;;;;;;;;;;;;;;5067971;28;2121;-59
2023/06/13 06:59:03;;;;;;;;;;;;;;;;;;5063092;28;4950;-60
2023/06/13 07:01:28;;;;;;;;;;;;;;;;;;5060633;28;4490;-60
2023/06/13 07:03:53;;;;;;;;;;;;;;;;;;5065987;28;4748;-61
2023/06/13 07:06:19;;;;;;;;;;;;;;;;;;5065007;28;5108;-59
2023/06/13 07:08:44;;;;;;;;;;;;;;;;;;5066088;28;4481;-59
2023/06/13 07:11:09;;;;;;;;;;;;;;;;;;5065040;28;3282;-61
2023/06/13 07:13:34;;;;;;;;;;;;;;;;;;5064873;28;4505;-60
2023/06/13 07:16:00;;;;;;;;;;;;;;;;;;5066179;28;4669;-61
2023/06/13 07:18:25;;;;;;;;;;;;;;;;;;5061892;28;4864;-61
2023/06/13 07:20:51;;;;;;;;;;;;;;;;;;5066135;28;4982;-61
2023/06/13 07:23:17;;;;;;;;;;;;;;;;;;5067440;28;2155;-61
2023/06/13 07:25:43;;;;;;;;;;;;;;;;;;5064542;28;5081;-58
2023/06/13 07:28:08;;;;;;;;;;;;;;;;;;5066556;28;4475;-61
2023/06/13 07:30:34;;;;;;;;;;;;;;;;;;5066465;28;4477;-61
2023/06/13 07:33:00;;;;;;;;;;;;;;;;;;5064651;28;4555;-60
2023/06/13 07:35:25;;;;;;;;;;;;;;;;;;5066935;28;2787;-60
2023/06/13 07:37:50;;;;;;;;;;;;;;;;;;5064795;28;4846;-60
2023/06/13 07:40:16;;;;;;;;;;;;;;;;;;5066197;28;4721;-61
2023/06/13 07:42:41;;;;;;;;;;;;;;;;;;5060973;28;4465;-61
2023/06/13 07:45:07;;;;;;;;;;;;;;;;;;5064479;28;4933;-58
2023/06/13 07:47:32;;;;;;;;;;;;;;;;;;5066745;28;1284;-58
2023/06/13 07:49:57;;;;;;;;;;;;;;;;;;5059951;28;4647;-63
2023/06/13 07:52:23;;;;;;;;;;;;;;;;;;5066482;28;5080;-62
2023/06/13 07:54:48;;;;;;;;;;;;;;;;;;5066243;28;5124;-62
2023/06/13 07:57:13;;;;;;;;;;;;;;;;;;5065264;28;4616;-63
2023/06/13 07:59:39;;;;;;;;;;;;;;;;;;5060560;28;3393;-63
2023/06/13 08:02:04;;;;;;;;;;;;;;;;;;5065526;28;5081;-62
2023/06/13 08:04:29;;;;;;;;;;;;;;;;;;5059932;28;4480;-65
2023/06/13 08:06:55;;;;;;;;;;;;;;;;;;5058427;28;4789;-65
2023/06/13 08:09:22;;;;;;;;;;;;;;;;;;5064077;28;5115;-63
2023/06/13 08:11:48;;;;;;;;;;;;;;;;;;5061391;28;4499;-62
2023/06/13 08:14:13;;;;;;;;;;;;;;;;;;5062279;28;3334;-62
2023/06/13 08:16:38;;;;;;;;;;;;;;;;;;5082591;28;5018;-64
2023/06/13 08:19:04;;;;;;;;;;;;;;;;;;5063608;28;4566;-63
2023/06/13 08:21:30;;;;;;;;;;;;;;;;;;5064013;28;4682;-62
2023/06/13 08:23:55;;;;;;;;;;;;;;;;;;5065438;28;4484;-63
2023/06/13 08:26:20;;;;;;;;;;;;;;;;;;5066829;28;1193;-63
2023/06/13 08:28:47;;;;;;;;;;;;;;;;;;5065716;28;4551;-62
2023/06/13 08:31:13;;;;;;;;;;;;;;;;;;5063037;28;4832;-64
2023/06/13 08:33:38;;;;;;;;;;;;;;;;;;5062911;28;4483;-62
2023/06/13 08:36:04;;;;;;;;;;;;;;;;;;5066888;28;5047;-62
2023/06/13 08:38:29;;;;;;;;;;;;;;;;;;5067135;28;1991;-64
2023/06/13 08:40:55;;;;;;;;;;;;;;;;;;5066056;28;4615;-63
2023/06/13 08:43:20;;;;;;;;;;;;;;;;;;5065416;28;4659;-65
2023/06/13 08:45:45;;;;;;;;;;;;;;;;;;5061276;28;5085;-64
2023/06/13 08:48:10;;;;;;;;;;;;;;;;;;5084140;28;4483;-66
2023/06/13 08:50:37;;;;;;;;;;;;;;;;;;5069282;28;1115;-65
2023/06/13 08:53:02;;;;;;;;;;;;;;;;;;5069417;28;4665;-63
2023/06/13 08:55:27;;;;;;;;;;;;;;;;;;5066937;28;4486;-62
2023/06/13 08:57:53;;;;;;;;;;;;;;;;;;5067835;28;4672;-63
2023/06/13 09:00:18;;;;;;;;;;;;;;;;;;5067759;28;5235;-64
2023/06/13 09:02:45;;;;;;;;;;;;;;;;;;5069928;28;5030;-65
2023/06/13 09:05:15;;;;;;;;;;;;;;;;;;5067862;28;3594;-65
2023/06/13 09:07:40;;;;;;;;;;;;;;;;;;5068347;28;4483;-63
2023/06/13 09:10:06;;;;;;;;;;;;;;;;;;5069469;28;4637;-65
2023/06/13 09:12:32;;;;;;;;;;;;;;;;;;5067359;28;4623;-61
2023/06/13 09:14:57;;;;;;;;;;;;;;;;;;5067553;28;5090;-61
2023/06/13 09:17:22;;;;;;;;;;;;;;;;;;5069105;28;2364;-61
2023/06/13 09:19:47;;;;;;;;;;;;;;;;;;5090592;28;4707;-63
2023/06/13 09:22:14;;;;;;;;;;;;;;;;;;5067504;28;4995;-63
2023/06/13 09:24:39;;;;;;;;;;;;;;;;;;5068045;28;4468;-63
2023/06/13 09:27:05;;;;;;;;;;;;;;;;;;5069074;28;4925;-62
2023/06/13 09:29:33;;;;;;;;;;;;;;;;;;5068197;28;3239;-63
2023/06/13 09:31:59;;;;;;;;;;;;;;;;;;5066790;28;4458;-62
2023/06/13 09:34:25;;;;;;;;;;;;;;;;;;5063517;28;4489;-67
2023/06/13 09:36:50;;;;;;;;;;;;;;;;;;5064155;28;5075;-58
2023/06/13 09:39:16;;;;;;;;;;;;;;;;;;5067534;28;4504;-58
2023/06/13 09:41:41;;;;;;;;;;;;;;;;;;5064945;28;4538;-59
2023/06/13 09:44:06;;;;;;;;;;;;;;;;;;5064101;28;1407;-61
2023/06/13 09:46:37;;;;;;;;;;;;;;;;;;5068409;28;4526;-60
2023/06/13 09:49:03;;;;;;;;;;;;;;;;;;5066736;28;4626;-59
2023/06/13 09:51:32;;;;;;;;;;;;;;;;;;5067842;28;5530;-59
2023/06/13 09:54:03;;;;;;;;;;;;;;;;;;5064517;28;4497;-58
2023/06/13 09:56:28;;;;;;;;;;;;;;;;;;5068135;28;1136;-59
2023/06/13 09:58:53;;;;;;;;;;;;;;;;;;5067638;28;5040;-59
2023/06/13 10:01:19;;;;;;;;;;;;;;;;;;5068041;28;5563;-59
2023/06/13 10:03:45;;;;;;;;;;;;;;;;;;5067549;28;4775;-60
2023/06/13 10:06:10;;;;;;;;;;;;;;;;;;5068231;28;4444;-60
2023/06/13 10:08:36;;;;;;;;;;;;;;;;;;5067086;28;1104;-60
2023/06/13 10:11:08;;;;;;;;;;;;;;;;;;5066742;28;4572;-60
2023/06/13 10:13:36;;;;;;;;;;;;;;;;;;5066100;28;4595;-59
2023/06/13 10:16:01;;;;;;;;;;;;;;;;;;5067853;28;4481;-59
2023/06/13 10:18:29;;;;;;;;;;;;;;;;;;5067530;28;5181;-60
2023/06/13 10:20:55;;;;;;;;;;;;;;;;;;5062268;28;4453;-59
2023/06/13 10:23:20;;;;;;;;;;;;;;;;;;5064645;28;2168;-60
2023/06/13 10:25:48;;;;;;;;;;;;;;;;;;5067186;28;4803;-59
2023/06/13 10:28:21;;;;;;;;;;;;;;;;;;5065206;28;5351;-59
2023/06/13 10:31:05;;;;;;;;;;;;;;;;;;5064765;28;4635;-60
2023/06/13 10:33:31;;;;;;;;;;;;;;;;;;5066752;28;5047;-59
2023/06/13 10:36:16;;;;;;;;;;;;;;;;;;5067495;28;5106;-59
2023/06/13 10:38:45;;;;;;;;;;;;;;;;;;5066530;28;4458;-59
2023/06/13 10:41:10;;;;;;;;;;;;;;;;;;5067612;28;1152;-59
2023/06/13 10:43:38;;;;;;;;;;;;;;;;;;5061773;28;4489;-59
2023/06/13 10:46:07;;;;;;;;;;;;;;;;;;5066018;28;4461;-59
2023/06/13 10:48:36;;;;;;;;;;;;;;;;;;5065096;28;4489;-61
2023/06/13 10:51:02;;;;;;;;;;;;;;;;;;5066649;28;4502;-59
2023/06/13 10:53:27;;;;;;;;;;;;;;;;;;5067878;28;1187;-59
2023/06/13 10:55:58;;;;;;;;;;;;;;;;;;5066989;28;4445;-59
2023/06/13 10:58:25;;;;;;;;;;;;;;;;;;5066684;28;4452;-60
2023/06/13 11:00:50;;;;;;;;;;;;;;;;;;5065197;28;5079;-60
2023/06/13 11:03:16;;;;;;;;;;;;;;;;;;5064456;28;4705;-58
2023/06/13 11:05:44;;;;;;;;;;;;;;;;;;5064931;28;4462;-58
2023/06/13 11:08:32;;;;;;;;;;;;;;;;;;5067085;28;1194;-59
2023/06/13 11:10:57;;;;;;;;;;;;;;;;;;5078627;28;4839;-57
2023/06/13 11:13:26;;;;;;;;;;;;;;;;;;5063420;28;5108;-57
2023/06/13 11:15:55;;;;;;;;;;;;;;;;;;5066430;28;5191;-56
2023/06/13 11:18:20;;;;;;;;;;;;;;;;;;5065971;28;4835;-56
2023/06/13 11:20:51;;;;;;;;;;;;;;;;;;5066572;28;4562;-60
2023/06/13 11:23:18;;;;;;;;;;;;;;;;;;5066450;28;1207;-57
2023/06/13 11:25:43;;;;;;;;;;;;;;;;;;5066398;28;4537;-59
2023/06/13 11:28:09;;;;;;;;;;;;;;;;;;5064162;28;4576;-62
2023/06/13 11:30:34;;;;;;;;;;;;;;;;;;5064236;28;4467;-60
2023/06/13 11:33:00;;;;;;;;;;;;;;;;;;5066150;28;5179;-60
2023/06/13 11:35:26;;;;;;;;;;;;;;;;;;5064613;28;1096;-62
2023/06/13 11:37:56;;;;;;;;;;;;;;;;;;5064317;28;4500;-61
2023/06/13 11:40:22;;;;;;;;;;;;;;;;;;5064785;28;4589;-62
2023/06/13 11:42:49;;;;;;;;;;;;;;;;;;5062918;28;4618;-61
2023/06/13 11:45:14;;;;;;;;;;;;;;;;;;5060481;28;4537;-61
2023/06/13 11:47:39;;;;;;;;;;;;;;;;;;5066481;28;1289;-61
2023/06/13 11:50:05;;;;;;;;;;;;;;;;;;5065776;28;4684;-62
2023/06/13 11:52:31;;;;;;;;;;;;;;;;;;5065468;28;5090;-61
2023/06/13 11:54:56;;;;;;;;;;;;;;;;;;5064268;28;4484;-60
2023/06/13 11:57:21;;;;;;;;;;;;;;;;;;5066022;28;4438;-62
2023/06/13 11:59:55;;;;;;;;;;;;;;;;;;5065238;28;5030;-60
2023/06/13 12:02:20;;;;;;;;;;;;;;;;;;5066464;28;1109;-60
2023/06/13 12:04:45;;;;;;;;;;;;;;;;;;5066143;28;4414;-61
2023/06/13 12:07:13;;;;;;;;;;;;;;;;;;5052402;28;4543;-64
2023/06/13 12:09:40;;;;;;;;;;;;;;;;;;5065495;28;4629;-61
2023/06/13 12:12:06;;;;;;;;;;;;;;;;;;5063560;28;4689;-62
2023/06/13 12:14:32;;;;;;;;;;;;;;;;;;5064049;28;2319;-61
2023/06/13 12:16:57;;;;;;;;;;;;;;;;;;5065505;28;4599;-62
2023/06/13 12:19:22;;;;;;;;;;;;;;;;;;5068522;28;5066;-61
2023/06/13 12:21:48;;;;;;;;;;;;;;;;;;5066770;28;5035;-62
2023/06/13 12:24:13;;;;;;;;;;;;;;;;;;5069277;28;4532;-60
2023/06/13 12:26:40;;;;;;;;;;;;;;;;;;5070654;28;1151;-65
2023/06/13 12:29:07;;;;;;;;;;;;;;;;;;5071681;28;5975;-64
2023/06/13 12:31:35;;;;;;;;;;;;;;;;;;5071020;28;4679;-62
2023/06/13 12:34:07;;;;;;;;;;;;;;;;;;5106525;27;4555;-61
2023/06/13 12:36:37;;;;;;;;;;;;;;;;;;5060608;28;4691;-65
2023/06/13 12:39:04;;;;;;;;;;;;;;;;;;5067662;28;4701;-62
2023/06/13 12:41:30;;;;;;;;;;;;;;;;;;5070351;28;1108;-61
2023/06/13 12:43:55;;;;;;;;;;;;;;;;;;5066918;28;4641;-60
2023/06/13 12:46:20;;;;;;;;;;;;;;;;;;5068236;28;5456;-62
2023/06/13 12:48:46;;;;;;;;;;;;;;;;;;5070461;28;4600;-61
2023/06/13 12:51:25;;;;;;;;;;;;;;;;;;5058695;28;4635;-63
2023/06/13 12:53:50;;;;;;;;;;;;;;;;;;5069185;28;5017;-62
2023/06/13 12:56:15;;;;;;;;;;;;;;;;;;5068675;28;1187;-60
2023/06/13 12:58:42;;;;;;;;;;;;;;;;;;5068945;28;5437;-60
2023/06/13 13:01:07;;;;;;;;;;;;;;;;;;5068867;28;4809;-60
2023/06/13 13:03:33;;;;;;;;;;;;;;;;;;5068804;28;5049;-61
2023/06/13 13:05:58;;;;;;;;;;;;;;;;;;5068819;28;4483;-62
2023/06/13 13:08:24;;;;;;;;;;;;;;;;;;5069841;28;1355;-61
2023/06/13 13:10:50;;;;;;;;;;;;;;;;;;5068083;28;4686;-64
2023/06/13 13:13:15;;;;;;;;;;;;;;;;;;5063034;28;4424;-61
2023/06/13 13:15:40;;;;;;;;;;;;;;;;;;5067329;28;5094;-62
2023/06/13 13:18:06;;;;;;;;;;;;;;;;;;5067345;28;4816;-60
2023/06/13 13:20:31;;;;;;;;;;;;;;;;;;5068332;28;1225;-61
2023/06/13 13:22:56;;;;;;;;;;;;;;;;;;5067959;28;5206;-62
2023/06/13 13:25:21;;;;;;;;;;;;;;;;;;5068516;28;5055;-61
2023/06/13 13:27:47;;;;;;;;;;;;;;;;;;5068782;28;4974;-61
2023/06/13 13:30:13;;;;;;;;;;;;;;;;;;5066552;28;4605;-63
2023/06/13 13:32:38;;;;;;;;;;;;;;;;;;5067808;28;1120;-60
2023/06/13 13:35:04;;;;;;;;;;;;;;;;;;5068846;28;4414;-63
2023/06/13 13:37:30;;;;;;;;;;;;;;;;;;5068334;28;4697;-61
2023/06/13 13:39:55;;;;;;;;;;;;;;;;;;5068249;28;4449;-62
2023/06/13 13:42:21;;;;;;;;;;;;;;;;;;5068151;28;4593;-61
2023/06/13 13:44:47;;;;;;;;;;;;;;;;;;5064178;28;4560;-64
2023/06/13 13:47:12;;;;;;;;;;;;;;;;;;5068604;28;1232;-61
2023/06/13 13:49:38;;;;;;;;;;;;;;;;;;5063413;28;4476;-61
2023/06/13 13:52:03;;;;;;;;;;;;;;;;;;5066493;28;4929;-61
2023/06/13 13:54:29;;;;;;;;;;;;;;;;;;5064769;28;4667;-62
2023/06/13 13:56:54;;;;;;;;;;;;;;;;;;5058393;28;5068;-62
2023/06/13 13:59:19;;;;;;;;;;;;;;;;;;5064299;28;3368;-61
2023/06/13 14:01:45;;;;;;;;;;;;;;;;;;5061114;28;5119;-61
2023/06/13 14:04:13;;;;;;;;;;;;;;;;;;5061682;28;4568;-63
2023/06/13 14:06:38;;;;;;;;;;;;;;;;;;5061898;28;4709;-61
2023/06/13 14:09:04;;;;;;;;;;;;;;;;;;5066701;28;4490;-60
2023/06/13 14:11:29;;;;;;;;;;;;;;;;;;5065087;28;3292;-61
2023/06/13 14:13:57;;;;;;;;;;;;;;;;;;5065931;28;4404;-63
2023/06/13 14:16:22;;;;;;;;;;;;;;;;;;5062927;28;5054;-66
2023/06/13 14:18:48;;;;;;;;;;;;;;;;;;5058990;28;4669;-62
2023/06/13 14:21:13;;;;;;;;;;;;;;;;;;5065844;28;5145;-60
2023/06/13 14:23:38;;;;;;;;;;;;;;;;;;5064657;28;4487;-64
2023/06/13 14:26:03;;;;;;;;;;;;;;;;;;5062815;28;4511;-61
2023/06/13 14:28:29;;;;;;;;;;;;;;;;;;5066082;28;5008;-57
2023/06/13 14:30:54;;;;;;;;;;;;;;;;;;5062951;28;4673;-59
2023/06/13 14:33:19;;;;;;;;;;;;;;;;;;5074113;28;4665;-62
2023/06/13 14:35:45;;;;;;;;;;;;;;;;;;5060451;28;4598;-64
2023/06/13 14:38:10;;;;;;;;;;;;;;;;;;5064358;28;3398;-65
2023/06/13 14:40:35;;;;;;;;;;;;;;;;;;5066848;28;5105;-61
2023/06/13 14:43:01;;;;;;;;;;;;;;;;;;5066683;28;4448;-56
2023/06/13 14:45:26;;;;;;;;;;;;;;;;;;5067220;28;4686;-59
2023/06/13 14:47:51;;;;;;;;;;;;;;;;;;5061217;28;4567;-59
2023/06/13 14:50:17;;;;;;;;;;;;;;;;;;5065328;28;3341;-61
2023/06/13 14:52:42;;;;;;;;;;;;;;;;;;5062653;28;4876;-63
2023/06/13 14:55:07;;;;;;;;;;;;;;;;;;5063952;28;4652;-60
2023/06/13 14:57:32;;;;;;;;;;;;;;;;;;5064133;28;5161;-60
2023/06/13 14:59:58;;;;;;;;;;;;;;;;;;5062723;28;4635;-59
2023/06/13 15:02:23;;;;;;;;;;;;;;;;;;5064735;28;3091;-60
2023/06/13 15:04:48;;;;;;;;;;;;;;;;;;5066796;28;4472;-59
2023/06/13 15:07:13;;;;;;;;;;;;;;;;;;5066546;28;4603;-59
2023/06/13 15:09:42;;;;;;;;;;;;;;;;;;5066633;28;4516;-59
2023/06/13 15:12:10;;;;;;;;;;;;;;;;;;5064837;28;4647;-63
2023/06/13 15:14:37;;;;;;;;;;;;;;;;;;5060050;28;1427;-59
2023/06/13 15:17:03;;;;;;;;;;;;;;;;;;5065892;28;4585;-63
2023/06/13 15:19:30;;;;;;;;;;;;;;;;;;5066514;28;4894;-59
2023/06/13 15:21:55;;;;;;;;;;;;;;;;;;5067028;28;4624;-59
2023/06/13 15:24:21;;;;;;;;;;;;;;;;;;5066778;28;4711;-59
2023/06/13 15:26:47;;;;;;;;;;;;;;;;;;5066500;28;5036;-60
2023/06/13 15:29:12;;;;;;;;;;;;;;;;;;5065560;28;1246;-63
2023/06/13 15:31:37;;;;;;;;;;;;;;;;;;5064765;28;4771;-60
2023/06/13 15:34:06;;;;;;;;;;;;;;;;;;5066508;28;4467;-62
2023/06/13 15:36:31;;;;;;;;;;;;;;;;;;5065760;28;4412;-58
2023/06/13 15:38:57;;;;;;;;;;;;;;;;;;5065809;28;5169;-59
2023/06/13 15:41:22;;;;;;;;;;;;;;;;;;5066613;28;1125;-62
2023/06/13 15:43:48;;;;;;;;;;;;;;;;;;5061946;28;4890;-61
2023/06/13 15:46:13;;;;;;;;;;;;;;;;;;5066426;28;4648;-63
2023/06/13 15:48:38;;;;;;;;;;;;;;;;;;5065338;28;4420;-61
2023/06/13 15:51:04;;;;;;;;;;;;;;;;;;5066421;28;4496;-61
2023/06/13 15:53:29;;;;;;;;;;;;;;;;;;5065825;28;1185;-59
2023/06/13 15:55:57;;;;;;;;;;;;;;;;;;5066588;28;4622;-60
2023/06/13 15:58:22;;;;;;;;;;;;;;;;;;5064242;28;4737;-60
2023/06/13 16:00:48;;;;;;;;;;;;;;;;;;5065835;28;5026;-61
2023/06/13 16:03:13;;;;;;;;;;;;;;;;;;5065420;28;5216;-61
2023/06/13 16:05:38;;;;;;;;;;;;;;;;;;5067244;28;1151;-62
2023/06/13 16:08:04;;;;;;;;;;;;;;;;;;5066587;28;4585;-62
2023/06/13 16:10:29;;;;;;;;;;;;;;;;;;5066165;28;4434;-60
2023/06/13 16:12:54;;;;;;;;;;;;;;;;;;5062481;28;4602;-61
2023/06/13 16:15:20;;;;;;;;;;;;;;;;;;5058466;28;5096;-60
2023/06/13 16:17:45;;;;;;;;;;;;;;;;;;5064888;28;4776;-60
2023/06/13 16:20:11;;;;;;;;;;;;;;;;;;5066030;28;1138;-61
2023/06/13 16:22:36;;;;;;;;;;;;;;;;;;5065973;28;5007;-60
2023/06/13 16:25:01;;;;;;;;;;;;;;;;;;5066214;28;4469;-58
2023/06/13 16:27:27;;;;;;;;;;;;;;;;;;5065919;28;4474;-60
2023/06/13 16:29:52;;;;;;;;;;;;;;;;;;5047621;28;4685;-60
2023/06/13 16:32:17;;;;;;;;;;;;;;;;;;5063574;28;1610;-59
2023/06/13 16:34:43;;;;;;;;;;;;;;;;;;5065771;28;4627;-59
2023/06/13 16:37:08;;;;;;;;;;;;;;;;;;5057442;28;4717;-60
2023/06/13 16:39:33;;;;;;;;;;;;;;;;;;5058066;28;4656;-62
2023/06/13 16:41:59;;;;;;;;;;;;;;;;;;5063998;28;5010;-62
2023/06/13 16:44:25;;;;;;;;;;;;;;;;;;5095300;28;1555;-62
2023/06/13 16:46:50;;;;;;;;;;;;;;;;;;5060679;28;4966;-59
2023/06/13 16:49:15;;;;;;;;;;;;;;;;;;5058480;28;5166;-62
2023/06/13 16:51:41;;;;;;;;;;;;;;;;;;5063773;28;4793;-60
2023/06/13 16:54:08;;;;;;;;;;;;;;;;;;5097629;28;4552;-60
2023/06/13 16:56:33;;;;;;;;;;;;;;;;;;5068084;28;2565;-59